sensor_id;sensor_type;location;lat;lon;timestamp;P1;durP1;ratioP1;P2;durP2;ratioP2
2838;SDS011;1427;48.510;9.060;2022-10-12T00:00:46;62.20;;;4.60;;
2838;SDS011;1427;48.510;9.060;2022-10-12T00:03:16;50.27;;;2.73;;
2838;SDS011;1427;48.510;9.060;2022-10-12T00:05:45;57.90;;;4.00;;
2838;SDS011;1427;48.510;9.060;2022-10-12T00:08:13;50.97;;;4.20;;
2838;SDS011;1427;48.510;9.060;2022-10-12T00:10:42;50.00;;;3.60;;
2838;SDS011;1427;48.510;9.060;2022-10-12T00:13:10;53.20;;;4.73;;
2838;SDS011;1427;48.510;9.060;2022-10-12T00:15:38;59.30;;;4.87;;
2838;SDS011;1427;48.510;9.060;2022-10-12T00:18:07;49.43;;;4.20;;
2838;SDS011;1427;48.510;9.060;2022-10-12T00:20:37;56.27;;;3.80;;
2838;SDS011;1427;48.510;9.060;2022-10-12T00:23:05;50.60;;;3.47;;
2838;SDS011;1427;48.510;9.060;2022-10-12T00:25:34;50.87;;;4.07;;
2838;SDS011;1427;48.510;9.060;2022-10-12T00:28:03;49.87;;;3.83;;
2838;SDS011;1427;48.510;9.060;2022-10-12T00:30:32;50.77;;;3.47;;
2838;SDS011;1427;48.510;9.060;2022-10-12T00:33:00;51.50;;;4.40;;
2838;SDS011;1427;48.510;9.060;2022-10-12T00:35:28;50.20;;;3.37;;
2838;SDS011;1427;48.510;9.060;2022-10-12T00:37:58;51.80;;;3.77;;
2838;SDS011;1427;48.510;9.060;2022-10-12T00:40:26;50.03;;;3.43;;
2838;SDS011;1427;48.510;9.060;2022-10-12T00:42:54;48.63;;;3.30;;
2838;SDS011;1427;48.510;9.060;2022-10-12T00:45:22;56.33;;;3.50;;
2838;SDS011;1427;48.510;9.060;2022-10-12T00:47:54;50.20;;;4.17;;
2838;SDS011;1427;48.510;9.060;2022-10-12T00:50:26;52.50;;;4.03;;
2838;SDS011;1427;48.510;9.060;2022-10-12T00:52:59;49.30;;;4.13;;
2838;SDS011;1427;48.510;9.060;2022-10-12T00:55:33;50.93;;;3.80;;
2838;SDS011;1427;48.510;9.060;2022-10-12T00:58:06;51.03;;;3.20;;
2838;SDS011;1427;48.510;9.060;2022-10-12T01:00:35;58.40;;;3.10;;
2838;SDS011;1427;48.510;9.060;2022-10-12T01:03:04;51.37;;;3.80;;
2838;SDS011;1427;48.510;9.060;2022-10-12T01:05:34;51.80;;;3.30;;
2838;SDS011;1427;48.510;9.060;2022-10-12T01:08:04;50.80;;;3.40;;
2838;SDS011;1427;48.510;9.060;2022-10-12T01:10:32;51.10;;;4.13;;
2838;SDS011;1427;48.510;9.060;2022-10-12T01:13:00;51.60;;;4.27;;
2838;SDS011;1427;48.510;9.060;2022-10-12T01:15:30;55.40;;;5.17;;
2838;SDS011;1427;48.510;9.060;2022-10-12T01:18:04;57.63;;;4.77;;
2838;SDS011;1427;48.510;9.060;2022-10-12T01:20:51;51.80;;;4.70;;
2838;SDS011;1427;48.510;9.060;2022-10-12T01:23:53;59.27;;;6.37;;
2838;SDS011;1427;48.510;9.060;2022-10-12T01:26:51;51.40;;;3.90;;
2838;SDS011;1427;48.510;9.060;2022-10-12T01:29:36;57.37;;;5.03;;
2838;SDS011;1427;48.510;9.060;2022-10-12T01:32:22;53.23;;;4.73;;
2838;SDS011;1427;48.510;9.060;2022-10-12T01:34:56;60.27;;;5.40;;
2838;SDS011;1427;48.510;9.060;2022-10-12T01:37:30;51.43;;;4.37;;
2838;SDS011;1427;48.510;9.060;2022-10-12T01:40:06;52.40;;;4.07;;
2838;SDS011;1427;48.510;9.060;2022-10-12T01:42:39;54.10;;;3.77;;
2838;SDS011;1427;48.510;9.060;2022-10-12T01:45:11;53.00;;;3.70;;
2838;SDS011;1427;48.510;9.060;2022-10-12T01:47:42;63.13;;;5.27;;
2838;SDS011;1427;48.510;9.060;2022-10-12T01:50:13;52.17;;;4.53;;
2838;SDS011;1427;48.510;9.060;2022-10-12T01:52:45;49.90;;;3.50;;
2838;SDS011;1427;48.510;9.060;2022-10-12T01:55:26;54.20;;;4.47;;
2838;SDS011;1427;48.510;9.060;2022-10-12T02:00:54;54.63;;;5.30;;
2838;SDS011;1427;48.510;9.060;2022-10-12T02:03:33;61.87;;;5.03;;
2838;SDS011;1427;48.510;9.060;2022-10-12T02:06:05;51.77;;;4.63;;
2838;SDS011;1427;48.510;9.060;2022-10-12T02:08:40;59.37;;;4.47;;
2838;SDS011;1427;48.510;9.060;2022-10-12T02:11:13;53.40;;;4.67;;
2838;SDS011;1427;48.510;9.060;2022-10-12T02:13:43;55.10;;;4.07;;
2838;SDS011;1427;48.510;9.060;2022-10-12T02:16:17;58.37;;;5.83;;
2838;SDS011;1427;48.510;9.060;2022-10-12T02:18:47;58.97;;;5.63;;
2838;SDS011;1427;48.510;9.060;2022-10-12T02:21:18;55.10;;;4.83;;
2838;SDS011;1427;48.510;9.060;2022-10-12T02:23:49;53.90;;;5.43;;
2838;SDS011;1427;48.510;9.060;2022-10-12T02:26:18;53.07;;;5.00;;
2838;SDS011;1427;48.510;9.060;2022-10-12T02:28:48;56.03;;;5.60;;
2838;SDS011;1427;48.510;9.060;2022-10-12T02:31:20;52.73;;;4.63;;
2838;SDS011;1427;48.510;9.060;2022-10-12T02:33:56;56.70;;;4.90;;
2838;SDS011;1427;48.510;9.060;2022-10-12T02:36:31;58.03;;;5.10;;
2838;SDS011;1427;48.510;9.060;2022-10-12T02:39:05;54.30;;;4.80;;
2838;SDS011;1427;48.510;9.060;2022-10-12T02:41:37;59.80;;;6.20;;
2838;SDS011;1427;48.510;9.060;2022-10-12T02:44:09;54.50;;;5.47;;
2838;SDS011;1427;48.510;9.060;2022-10-12T02:46:42;62.27;;;5.70;;
2838;SDS011;1427;48.510;9.060;2022-10-12T02:49:13;56.30;;;6.23;;
2838;SDS011;1427;48.510;9.060;2022-10-12T02:51:43;55.93;;;5.13;;
2838;SDS011;1427;48.510;9.060;2022-10-12T02:54:12;51.87;;;4.10;;
2838;SDS011;1427;48.510;9.060;2022-10-12T02:56:41;54.00;;;4.83;;
2838;SDS011;1427;48.510;9.060;2022-10-12T02:59:11;52.90;;;5.07;;
2838;SDS011;1427;48.510;9.060;2022-10-12T03:01:40;52.30;;;4.47;;
2838;SDS011;1427;48.510;9.060;2022-10-12T03:04:10;58.80;;;5.50;;
2838;SDS011;1427;48.510;9.060;2022-10-12T03:06:38;59.60;;;5.87;;
2838;SDS011;1427;48.510;9.060;2022-10-12T03:09:07;59.43;;;4.80;;
2838;SDS011;1427;48.510;9.060;2022-10-12T03:11:36;55.53;;;4.40;;
2838;SDS011;1427;48.510;9.060;2022-10-12T03:14:09;57.53;;;5.90;;
2838;SDS011;1427;48.510;9.060;2022-10-12T03:16:37;62.53;;;7.13;;
2838;SDS011;1427;48.510;9.060;2022-10-12T03:19:06;56.97;;;6.27;;
2838;SDS011;1427;48.510;9.060;2022-10-12T03:21:35;53.20;;;4.33;;
2838;SDS011;1427;48.510;9.060;2022-10-12T03:24:03;56.40;;;5.20;;
2838;SDS011;1427;48.510;9.060;2022-10-12T03:26:31;57.00;;;5.13;;
2838;SDS011;1427;48.510;9.060;2022-10-12T03:29:00;63.60;;;6.50;;
2838;SDS011;1427;48.510;9.060;2022-10-12T03:31:28;57.27;;;6.40;;
2838;SDS011;1427;48.510;9.060;2022-10-12T03:33:56;59.57;;;5.80;;
2838;SDS011;1427;48.510;9.060;2022-10-12T03:36:24;52.47;;;4.70;;
2838;SDS011;1427;48.510;9.060;2022-10-12T03:38:54;72.10;;;6.30;;
2838;SDS011;1427;48.510;9.060;2022-10-12T03:41:22;60.60;;;6.20;;
2838;SDS011;1427;48.510;9.060;2022-10-12T03:43:50;54.87;;;4.60;;
2838;SDS011;1427;48.510;9.060;2022-10-12T03:46:18;56.97;;;4.90;;
2838;SDS011;1427;48.510;9.060;2022-10-12T03:48:46;56.27;;;5.60;;
2838;SDS011;1427;48.510;9.060;2022-10-12T03:51:14;59.37;;;4.87;;
2838;SDS011;1427;48.510;9.060;2022-10-12T03:53:42;60.47;;;6.93;;
2838;SDS011;1427;48.510;9.060;2022-10-12T03:56:12;58.00;;;6.17;;
2838;SDS011;1427;48.510;9.060;2022-10-12T03:58:40;60.47;;;5.83;;
2838;SDS011;1427;48.510;9.060;2022-10-12T04:01:08;60.70;;;7.10;;
2838;SDS011;1427;48.510;9.060;2022-10-12T04:03:36;52.47;;;4.57;;
2838;SDS011;1427;48.510;9.060;2022-10-12T04:06:05;58.90;;;6.27;;
2838;SDS011;1427;48.510;9.060;2022-10-12T04:08:33;59.77;;;5.70;;
2838;SDS011;1427;48.510;9.060;2022-10-12T04:11:01;62.63;;;5.93;;
2838;SDS011;1427;48.510;9.060;2022-10-12T04:13:30;55.03;;;4.57;;
2838;SDS011;1427;48.510;9.060;2022-10-12T04:16:00;69.67;;;7.13;;
2838;SDS011;1427;48.510;9.060;2022-10-12T04:18:29;54.87;;;5.07;;
2838;SDS011;1427;48.510;9.060;2022-10-12T04:20:57;58.67;;;5.37;;
2838;SDS011;1427;48.510;9.060;2022-10-12T04:23:26;59.27;;;7.20;;
2838;SDS011;1427;48.510;9.060;2022-10-12T04:25:54;57.53;;;6.10;;
2838;SDS011;1427;48.510;9.060;2022-10-12T04:28:22;65.20;;;5.20;;
2838;SDS011;1427;48.510;9.060;2022-10-12T04:30:52;66.43;;;7.97;;
2838;SDS011;1427;48.510;9.060;2022-10-12T04:33:20;52.43;;;3.77;;
2838;SDS011;1427;48.510;9.060;2022-10-12T04:35:48;53.40;;;4.90;;
2838;SDS011;1427;48.510;9.060;2022-10-12T04:38:16;64.07;;;6.17;;
2838;SDS011;1427;48.510;9.060;2022-10-12T04:40:44;60.90;;;7.07;;
2838;SDS011;1427;48.510;9.060;2022-10-12T04:43:13;54.67;;;5.00;;
2838;SDS011;1427;48.510;9.060;2022-10-12T04:45:41;60.70;;;7.70;;
2838;SDS011;1427;48.510;9.060;2022-10-12T04:48:11;57.57;;;5.93;;
2838;SDS011;1427;48.510;9.060;2022-10-12T04:50:39;64.33;;;5.77;;
2838;SDS011;1427;48.510;9.060;2022-10-12T04:53:07;55.30;;;4.90;;
2838;SDS011;1427;48.510;9.060;2022-10-12T04:55:35;56.90;;;7.10;;
2838;SDS011;1427;48.510;9.060;2022-10-12T04:58:04;61.20;;;5.77;;
2838;SDS011;1427;48.510;9.060;2022-10-12T05:00:32;56.73;;;5.27;;
2838;SDS011;1427;48.510;9.060;2022-10-12T05:03:00;56.37;;;6.63;;
2838;SDS011;1427;48.510;9.060;2022-10-12T05:05:29;59.03;;;6.27;;
2838;SDS011;1427;48.510;9.060;2022-10-12T05:07:59;54.63;;;5.57;;
2838;SDS011;1427;48.510;9.060;2022-10-12T05:10:27;63.80;;;6.87;;
2838;SDS011;1427;48.510;9.060;2022-10-12T05:12:55;59.37;;;4.93;;
2838;SDS011;1427;48.510;9.060;2022-10-12T05:15:23;59.13;;;6.57;;
2838;SDS011;1427;48.510;9.060;2022-10-12T05:17:52;61.27;;;5.60;;
2838;SDS011;1427;48.510;9.060;2022-10-12T05:20:20;57.77;;;6.00;;
2838;SDS011;1427;48.510;9.060;2022-10-12T05:22:50;54.97;;;5.13;;
2838;SDS011;1427;48.510;9.060;2022-10-12T05:25:18;59.63;;;6.40;;
2838;SDS011;1427;48.510;9.060;2022-10-12T05:27:46;63.30;;;7.20;;
2838;SDS011;1427;48.510;9.060;2022-10-12T05:30:14;56.30;;;6.00;;
2838;SDS011;1427;48.510;9.060;2022-10-12T05:32:43;54.00;;;6.60;;
2838;SDS011;1427;48.510;9.060;2022-10-12T05:35:11;58.30;;;6.40;;
2838;SDS011;1427;48.510;9.060;2022-10-12T05:37:39;67.10;;;5.77;;
2838;SDS011;1427;48.510;9.060;2022-10-12T05:40:10;54.47;;;5.30;;
2838;SDS011;1427;48.510;9.060;2022-10-12T05:42:38;56.87;;;5.50;;
2838;SDS011;1427;48.510;9.060;2022-10-12T05:45:07;55.23;;;6.03;;
2838;SDS011;1427;48.510;9.060;2022-10-12T05:47:35;56.37;;;4.90;;
2838;SDS011;1427;48.510;9.060;2022-10-12T05:50:04;54.17;;;5.40;;
2838;SDS011;1427;48.510;9.060;2022-10-12T05:52:33;52.50;;;5.00;;
2838;SDS011;1427;48.510;9.060;2022-10-12T05:55:01;59.07;;;5.73;;
2838;SDS011;1427;48.510;9.060;2022-10-12T05:57:31;65.70;;;7.57;;
2838;SDS011;1427;48.510;9.060;2022-10-12T05:59:59;59.30;;;7.53;;
2838;SDS011;1427;48.510;9.060;2022-10-12T06:02:27;63.63;;;7.10;;
2838;SDS011;1427;48.510;9.060;2022-10-12T06:04:55;62.33;;;6.53;;
2838;SDS011;1427;48.510;9.060;2022-10-12T06:07:23;62.77;;;6.40;;
2838;SDS011;1427;48.510;9.060;2022-10-12T06:09:51;56.47;;;6.10;;
2838;SDS011;1427;48.510;9.060;2022-10-12T06:12:20;59.20;;;5.50;;
2838;SDS011;1427;48.510;9.060;2022-10-12T06:14:50;57.67;;;6.50;;
2838;SDS011;1427;48.510;9.060;2022-10-12T06:17:18;57.27;;;5.97;;
2838;SDS011;1427;48.510;9.060;2022-10-12T06:19:46;56.23;;;5.57;;
2838;SDS011;1427;48.510;9.060;2022-10-12T06:22:15;62.70;;;7.50;;
2838;SDS011;1427;48.510;9.060;2022-10-12T06:24:43;56.67;;;5.70;;
2838;SDS011;1427;48.510;9.060;2022-10-12T06:27:11;55.60;;;6.30;;
2838;SDS011;1427;48.510;9.060;2022-10-12T06:29:39;54.57;;;4.50;;
2838;SDS011;1427;48.510;9.060;2022-10-12T06:32:09;67.63;;;5.97;;
2838;SDS011;1427;48.510;9.060;2022-10-12T06:34:37;57.07;;;5.47;;
2838;SDS011;1427;48.510;9.060;2022-10-12T06:37:05;52.00;;;4.10;;
2838;SDS011;1427;48.510;9.060;2022-10-12T06:39:53;59.30;;;5.43;;
2838;SDS011;1427;48.510;9.060;2022-10-12T06:42:21;69.90;;;7.70;;
2838;SDS011;1427;48.510;9.060;2022-10-12T06:44:50;57.73;;;5.23;;
2838;SDS011;1427;48.510;9.060;2022-10-12T06:47:19;56.87;;;5.80;;
2838;SDS011;1427;48.510;9.060;2022-10-12T06:49:47;54.63;;;5.67;;
2838;SDS011;1427;48.510;9.060;2022-10-12T06:52:15;61.50;;;7.30;;
2838;SDS011;1427;48.510;9.060;2022-10-12T06:54:44;66.90;;;5.43;;
2838;SDS011;1427;48.510;9.060;2022-10-12T06:57:12;52.40;;;4.83;;
2838;SDS011;1427;48.510;9.060;2022-10-12T06:59:40;54.13;;;5.73;;
2838;SDS011;1427;48.510;9.060;2022-10-12T07:02:08;54.93;;;5.43;;
2838;SDS011;1427;48.510;9.060;2022-10-12T07:04:38;56.27;;;6.23;;
2838;SDS011;1427;48.510;9.060;2022-10-12T07:07:07;59.47;;;7.13;;
2838;SDS011;1427;48.510;9.060;2022-10-12T07:09:35;57.33;;;6.23;;
2838;SDS011;1427;48.510;9.060;2022-10-12T07:12:03;65.07;;;6.90;;
2838;SDS011;1427;48.510;9.060;2022-10-12T07:14:31;56.50;;;6.70;;
2838;SDS011;1427;48.510;9.060;2022-10-12T07:17:00;62.13;;;6.83;;
2838;SDS011;1427;48.510;9.060;2022-10-12T07:19:28;59.83;;;6.30;;
2838;SDS011;1427;48.510;9.060;2022-10-12T07:21:57;58.63;;;6.90;;
2838;SDS011;1427;48.510;9.060;2022-10-12T07:24:26;54.67;;;5.13;;
2838;SDS011;1427;48.510;9.060;2022-10-12T07:27:01;53.67;;;5.10;;
2838;SDS011;1427;48.510;9.060;2022-10-12T07:29:29;55.93;;;4.87;;
2838;SDS011;1427;48.510;9.060;2022-10-12T07:31:58;64.77;;;5.60;;
2838;SDS011;1427;48.510;9.060;2022-10-12T07:34:27;58.30;;;6.73;;
2838;SDS011;1427;48.510;9.060;2022-10-12T07:36:55;54.27;;;5.60;;
2838;SDS011;1427;48.510;9.060;2022-10-12T07:39:25;70.93;;;5.90;;
2838;SDS011;1427;48.510;9.060;2022-10-12T07:41:53;60.27;;;5.93;;
2838;SDS011;1427;48.510;9.060;2022-10-12T07:44:22;56.73;;;6.00;;
2838;SDS011;1427;48.510;9.060;2022-10-12T07:46:50;78.10;;;14.00;;
2838;SDS011;1427;48.510;9.060;2022-10-12T07:49:18;74.97;;;9.80;;
2838;SDS011;1427;48.510;9.060;2022-10-12T07:51:46;68.13;;;9.63;;
2838;SDS011;1427;48.510;9.060;2022-10-12T07:54:16;59.33;;;6.23;;
2838;SDS011;1427;48.510;9.060;2022-10-12T07:56:49;56.30;;;4.83;;
2838;SDS011;1427;48.510;9.060;2022-10-12T07:59:17;55.07;;;5.73;;
2838;SDS011;1427;48.510;9.060;2022-10-12T08:01:45;58.37;;;6.03;;
2838;SDS011;1427;48.510;9.060;2022-10-12T08:04:13;58.90;;;6.03;;
2838;SDS011;1427;48.510;9.060;2022-10-12T08:06:41;57.30;;;6.57;;
2838;SDS011;1427;48.510;9.060;2022-10-12T08:09:10;55.90;;;6.40;;
2838;SDS011;1427;48.510;9.060;2022-10-12T08:11:39;54.00;;;5.97;;
2838;SDS011;1427;48.510;9.060;2022-10-12T08:14:11;56.33;;;5.60;;
2838;SDS011;1427;48.510;9.060;2022-10-12T08:16:41;56.60;;;5.63;;
2838;SDS011;1427;48.510;9.060;2022-10-12T08:19:09;54.40;;;5.40;;
2838;SDS011;1427;48.510;9.060;2022-10-12T08:21:37;54.60;;;6.87;;
2838;SDS011;1427;48.510;9.060;2022-10-12T08:24:07;57.60;;;7.20;;
2838;SDS011;1427;48.510;9.060;2022-10-12T08:26:35;62.23;;;6.63;;
2838;SDS011;1427;48.510;9.060;2022-10-12T08:29:05;53.90;;;5.57;;
2838;SDS011;1427;48.510;9.060;2022-10-12T08:31:34;59.50;;;6.67;;
2838;SDS011;1427;48.510;9.060;2022-10-12T08:34:03;54.90;;;5.50;;
2838;SDS011;1427;48.510;9.060;2022-10-12T08:36:31;56.43;;;6.70;;
2838;SDS011;1427;48.510;9.060;2022-10-12T08:38:59;53.97;;;5.30;;
2838;SDS011;1427;48.510;9.060;2022-10-12T08:41:30;54.70;;;5.33;;
2838;SDS011;1427;48.510;9.060;2022-10-12T08:44:11;52.80;;;5.60;;
2838;SDS011;1427;48.510;9.060;2022-10-12T08:46:48;53.70;;;4.83;;
2838;SDS011;1427;48.510;9.060;2022-10-12T08:49:21;54.83;;;5.80;;
2838;SDS011;1427;48.510;9.060;2022-10-12T08:51:53;58.80;;;6.70;;
2838;SDS011;1427;48.510;9.060;2022-10-12T08:54:24;76.00;;;10.97;;
2838;SDS011;1427;48.510;9.060;2022-10-12T08:56:55;65.07;;;8.00;;
2838;SDS011;1427;48.510;9.060;2022-10-12T08:59:25;57.30;;;5.97;;
2838;SDS011;1427;48.510;9.060;2022-10-12T09:01:58;61.83;;;5.10;;
2838;SDS011;1427;48.510;9.060;2022-10-12T09:04:43;53.73;;;4.90;;
2838;SDS011;1427;48.510;9.060;2022-10-12T09:07:18;52.73;;;4.43;;
2838;SDS011;1427;48.510;9.060;2022-10-12T09:09:55;52.97;;;5.10;;
2838;SDS011;1427;48.510;9.060;2022-10-12T09:12:33;56.13;;;6.20;;
2838;SDS011;1427;48.510;9.060;2022-10-12T09:15:12;55.20;;;4.27;;
2838;SDS011;1427;48.510;9.060;2022-10-12T09:17:43;53.97;;;6.13;;
2838;SDS011;1427;48.510;9.060;2022-10-12T09:20:16;54.23;;;5.40;;
2838;SDS011;1427;48.510;9.060;2022-10-12T09:22:47;57.67;;;5.87;;
2838;SDS011;1427;48.510;9.060;2022-10-12T09:25:17;57.83;;;5.77;;
2838;SDS011;1427;48.510;9.060;2022-10-12T09:27:48;52.70;;;4.27;;
2838;SDS011;1427;48.510;9.060;2022-10-12T09:30:18;54.00;;;4.73;;
2838;SDS011;1427;48.510;9.060;2022-10-12T09:35:39;51.17;;;4.03;;
2838;SDS011;1427;48.510;9.060;2022-10-12T09:38:19;55.50;;;4.20;;
2838;SDS011;1427;48.510;9.060;2022-10-12T09:40:51;53.80;;;3.90;;
2838;SDS011;1427;48.510;9.060;2022-10-12T09:43:19;53.67;;;4.73;;
2838;SDS011;1427;48.510;9.060;2022-10-12T09:45:48;49.10;;;2.90;;
2838;SDS011;1427;48.510;9.060;2022-10-12T09:48:18;52.63;;;4.00;;
2838;SDS011;1427;48.510;9.060;2022-10-12T09:50:48;52.67;;;3.70;;
2838;SDS011;1427;48.510;9.060;2022-10-12T09:53:20;49.40;;;3.10;;
2838;SDS011;1427;48.510;9.060;2022-10-12T09:55:57;51.80;;;3.10;;
2838;SDS011;1427;48.510;9.060;2022-10-12T09:58:28;48.70;;;2.80;;
2838;SDS011;1427;48.510;9.060;2022-10-12T10:01:16;52.77;;;3.47;;
2838;SDS011;1427;48.510;9.060;2022-10-12T10:03:50;48.67;;;3.07;;
2838;SDS011;1427;48.510;9.060;2022-10-12T10:06:34;50.67;;;3.70;;
2838;SDS011;1427;48.510;9.060;2022-10-12T10:09:03;50.17;;;3.20;;
2838;SDS011;1427;48.510;9.060;2022-10-12T10:11:32;52.63;;;4.13;;
2838;SDS011;1427;48.510;9.060;2022-10-12T10:14:00;48.77;;;3.67;;
2838;SDS011;1427;48.510;9.060;2022-10-12T10:16:30;58.63;;;4.03;;
2838;SDS011;1427;48.510;9.060;2022-10-12T10:18:58;56.10;;;3.40;;
2838;SDS011;1427;48.510;9.060;2022-10-12T10:21:29;51.87;;;3.10;;
2838;SDS011;1427;48.510;9.060;2022-10-12T10:24:00;51.67;;;2.97;;
2838;SDS011;1427;48.510;9.060;2022-10-12T10:29:23;50.80;;;3.97;;
2838;SDS011;1427;48.510;9.060;2022-10-12T10:32:07;54.00;;;3.23;;
2838;SDS011;1427;48.510;9.060;2022-10-12T10:34:59;50.73;;;3.60;;
2838;SDS011;1427;48.510;9.060;2022-10-12T10:37:29;56.87;;;4.50;;
2838;SDS011;1427;48.510;9.060;2022-10-12T10:39:58;51.43;;;3.17;;
2838;SDS011;1427;48.510;9.060;2022-10-12T10:42:27;57.27;;;6.30;;
2838;SDS011;1427;48.510;9.060;2022-10-12T10:44:58;51.00;;;3.23;;
2838;SDS011;1427;48.510;9.060;2022-10-12T10:47:30;48.70;;;3.33;;
2838;SDS011;1427;48.510;9.060;2022-10-12T10:50:00;57.47;;;4.17;;
2838;SDS011;1427;48.510;9.060;2022-10-12T10:52:30;53.03;;;3.20;;
2838;SDS011;1427;48.510;9.060;2022-10-12T10:55:17;52.30;;;4.20;;
2838;SDS011;1427;48.510;9.060;2022-10-12T10:57:49;46.90;;;2.23;;
2838;SDS011;1427;48.510;9.060;2022-10-12T11:00:23;49.37;;;3.30;;
2838;SDS011;1427;48.510;9.060;2022-10-12T11:03:06;50.80;;;3.00;;
2838;SDS011;1427;48.510;9.060;2022-10-12T11:05:42;48.57;;;2.60;;
2838;SDS011;1427;48.510;9.060;2022-10-12T11:08:14;49.17;;;3.03;;
2838;SDS011;1427;48.510;9.060;2022-10-12T11:10:47;48.77;;;2.47;;
2838;SDS011;1427;48.510;9.060;2022-10-12T11:13:20;48.43;;;3.03;;
2838;SDS011;1427;48.510;9.060;2022-10-12T11:15:53;48.03;;;2.60;;
2838;SDS011;1427;48.510;9.060;2022-10-12T11:18:29;48.90;;;2.50;;
2838;SDS011;1427;48.510;9.060;2022-10-12T11:21:03;52.40;;;3.03;;
2838;SDS011;1427;48.510;9.060;2022-10-12T11:23:39;48.17;;;2.30;;
2838;SDS011;1427;48.510;9.060;2022-10-12T11:26:17;47.47;;;2.43;;
2838;SDS011;1427;48.510;9.060;2022-10-12T11:28:49;46.57;;;2.30;;
2838;SDS011;1427;48.510;9.060;2022-10-12T11:31:20;48.90;;;2.90;;
2838;SDS011;1427;48.510;9.060;2022-10-12T11:33:53;47.90;;;2.93;;
2838;SDS011;1427;48.510;9.060;2022-10-12T11:36:23;50.10;;;3.03;;
2838;SDS011;1427;48.510;9.060;2022-10-12T11:38:54;49.83;;;3.20;;
2838;SDS011;1427;48.510;9.060;2022-10-12T11:41:33;49.57;;;2.90;;
2838;SDS011;1427;48.510;9.060;2022-10-12T11:44:34;48.67;;;2.80;;
2838;SDS011;1427;48.510;9.060;2022-10-12T11:47:08;50.60;;;3.37;;
2838;SDS011;1427;48.510;9.060;2022-10-12T11:49:45;49.60;;;2.30;;
2838;SDS011;1427;48.510;9.060;2022-10-12T11:52:20;48.30;;;2.53;;
2838;SDS011;1427;48.510;9.060;2022-10-12T11:54:54;49.20;;;2.33;;
2838;SDS011;1427;48.510;9.060;2022-10-12T11:57:33;48.60;;;2.40;;
2838;SDS011;1427;48.510;9.060;2022-10-12T12:00:03;48.30;;;2.30;;
2838;SDS011;1427;48.510;9.060;2022-10-12T12:02:44;48.00;;;2.43;;
2838;SDS011;1427;48.510;9.060;2022-10-12T12:05:17;50.80;;;2.20;;
2838;SDS011;1427;48.510;9.060;2022-10-12T12:07:46;47.07;;;1.93;;
2838;SDS011;1427;48.510;9.060;2022-10-12T12:13:21;50.93;;;2.60;;
2838;SDS011;1427;48.510;9.060;2022-10-12T12:19:14;50.10;;;1.70;;
2838;SDS011;1427;48.510;9.060;2022-10-12T12:22:13;47.97;;;2.53;;
2838;SDS011;1427;48.510;9.060;2022-10-12T12:24:54;51.33;;;3.40;;
2838;SDS011;1427;48.510;9.060;2022-10-12T12:27:28;49.77;;;2.87;;
2838;SDS011;1427;48.510;9.060;2022-10-12T12:29:59;53.20;;;2.30;;
2838;SDS011;1427;48.510;9.060;2022-10-12T12:32:39;49.90;;;3.17;;
2838;SDS011;1427;48.510;9.060;2022-10-12T12:35:30;45.87;;;1.60;;
2838;SDS011;1427;48.510;9.060;2022-10-12T12:38:18;47.83;;;2.37;;
2838;SDS011;1427;48.510;9.060;2022-10-12T12:41:05;49.77;;;2.83;;
2838;SDS011;1427;48.510;9.060;2022-10-12T12:44:02;55.03;;;2.57;;
2838;SDS011;1427;48.510;9.060;2022-10-12T12:53:00;47.50;;;2.70;;
2838;SDS011;1427;48.510;9.060;2022-10-12T12:55:37;54.53;;;2.40;;
2838;SDS011;1427;48.510;9.060;2022-10-12T12:58:28;49.40;;;2.60;;
2838;SDS011;1427;48.510;9.060;2022-10-12T13:01:16;49.57;;;2.53;;
2838;SDS011;1427;48.510;9.060;2022-10-12T13:07:05;50.57;;;3.20;;
2838;SDS011;1427;48.510;9.060;2022-10-12T13:10:00;47.30;;;2.50;;
2838;SDS011;1427;48.510;9.060;2022-10-12T13:12:56;52.27;;;2.93;;
2838;SDS011;1427;48.510;9.060;2022-10-12T13:15:54;46.87;;;2.10;;
2838;SDS011;1427;48.510;9.060;2022-10-12T13:25:21;47.17;;;2.47;;
2838;SDS011;1427;48.510;9.060;2022-10-12T13:27:56;47.70;;;2.17;;
2838;SDS011;1427;48.510;9.060;2022-10-12T13:30:27;48.50;;;2.43;;
2838;SDS011;1427;48.510;9.060;2022-10-12T13:33:01;48.67;;;2.70;;
2838;SDS011;1427;48.510;9.060;2022-10-12T13:35:35;47.47;;;2.13;;
2838;SDS011;1427;48.510;9.060;2022-10-12T13:38:16;48.50;;;2.70;;
2838;SDS011;1427;48.510;9.060;2022-10-12T13:41:52;52.23;;;3.17;;
2838;SDS011;1427;48.510;9.060;2022-10-12T13:48:15;53.27;;;3.30;;
2838;SDS011;1427;48.510;9.060;2022-10-12T14:05:24;48.40;;;2.87;;
2838;SDS011;1427;48.510;9.060;2022-10-12T14:07:54;46.70;;;2.30;;
2838;SDS011;1427;48.510;9.060;2022-10-12T14:10:27;48.13;;;2.90;;
2838;SDS011;1427;48.510;9.060;2022-10-12T14:12:58;48.73;;;2.33;;
2838;SDS011;1427;48.510;9.060;2022-10-12T14:15:29;48.27;;;2.83;;
2838;SDS011;1427;48.510;9.060;2022-10-12T14:18:00;52.00;;;2.80;;
2838;SDS011;1427;48.510;9.060;2022-10-12T14:20:30;49.70;;;3.13;;
2838;SDS011;1427;48.510;9.060;2022-10-12T14:23:02;50.40;;;2.40;;
2838;SDS011;1427;48.510;9.060;2022-10-12T14:25:37;49.87;;;2.70;;
2838;SDS011;1427;48.510;9.060;2022-10-12T14:28:19;53.50;;;2.27;;
2838;SDS011;1427;48.510;9.060;2022-10-12T14:30:55;50.50;;;3.30;;
2838;SDS011;1427;48.510;9.060;2022-10-12T14:33:24;51.33;;;2.97;;
2838;SDS011;1427;48.510;9.060;2022-10-12T14:38:42;48.37;;;2.27;;
2838;SDS011;1427;48.510;9.060;2022-10-12T14:41:32;49.37;;;2.97;;
2838;SDS011;1427;48.510;9.060;2022-10-12T14:44:03;47.40;;;2.00;;
2838;SDS011;1427;48.510;9.060;2022-10-12T14:46:36;51.90;;;2.37;;
2838;SDS011;1427;48.510;9.060;2022-10-12T14:49:09;48.40;;;2.60;;
2838;SDS011;1427;48.510;9.060;2022-10-12T14:51:44;48.50;;;3.07;;
2838;SDS011;1427;48.510;9.060;2022-10-12T14:54:12;47.40;;;2.73;;
2838;SDS011;1427;48.510;9.060;2022-10-12T14:56:40;48.93;;;2.40;;
2838;SDS011;1427;48.510;9.060;2022-10-12T14:59:08;47.83;;;2.50;;
2838;SDS011;1427;48.510;9.060;2022-10-12T15:01:36;50.13;;;2.67;;
2838;SDS011;1427;48.510;9.060;2022-10-12T15:04:08;47.60;;;2.37;;
2838;SDS011;1427;48.510;9.060;2022-10-12T15:06:38;50.30;;;3.13;;
2838;SDS011;1427;48.510;9.060;2022-10-12T15:09:08;54.30;;;4.40;;
2838;SDS011;1427;48.510;9.060;2022-10-12T15:11:36;53.23;;;3.83;;
2838;SDS011;1427;48.510;9.060;2022-10-12T15:14:04;48.73;;;3.20;;
2838;SDS011;1427;48.510;9.060;2022-10-12T15:16:32;48.33;;;2.50;;
2838;SDS011;1427;48.510;9.060;2022-10-12T15:19:00;52.77;;;4.17;;
2838;SDS011;1427;48.510;9.060;2022-10-12T15:21:28;48.37;;;2.63;;
2838;SDS011;1427;48.510;9.060;2022-10-12T15:23:56;46.70;;;1.87;;
2838;SDS011;1427;48.510;9.060;2022-10-12T15:26:26;47.70;;;2.40;;
2838;SDS011;1427;48.510;9.060;2022-10-12T15:28:54;50.43;;;2.57;;
2838;SDS011;1427;48.510;9.060;2022-10-12T15:31:22;50.90;;;2.77;;
2838;SDS011;1427;48.510;9.060;2022-10-12T15:33:50;66.70;;;9.63;;
2838;SDS011;1427;48.510;9.060;2022-10-12T15:36:18;57.60;;;7.27;;
2838;SDS011;1427;48.510;9.060;2022-10-12T15:38:46;56.20;;;4.30;;
2838;SDS011;1427;48.510;9.060;2022-10-12T15:41:15;65.07;;;7.90;;
2838;SDS011;1427;48.510;9.060;2022-10-12T15:43:46;49.57;;;3.57;;
2838;SDS011;1427;48.510;9.060;2022-10-12T15:46:14;47.60;;;2.13;;
2838;SDS011;1427;48.510;9.060;2022-10-12T15:48:42;54.10;;;2.53;;
2838;SDS011;1427;48.510;9.060;2022-10-12T15:51:11;49.67;;;2.63;;
2838;SDS011;1427;48.510;9.060;2022-10-12T15:53:43;50.03;;;2.87;;
2838;SDS011;1427;48.510;9.060;2022-10-12T15:56:12;47.73;;;2.13;;
2838;SDS011;1427;48.510;9.060;2022-10-12T15:58:41;48.00;;;2.10;;
2838;SDS011;1427;48.510;9.060;2022-10-12T16:01:11;52.20;;;4.03;;
2838;SDS011;1427;48.510;9.060;2022-10-12T16:03:40;48.40;;;2.60;;
2838;SDS011;1427;48.510;9.060;2022-10-12T16:06:09;50.80;;;3.43;;
2838;SDS011;1427;48.510;9.060;2022-10-12T16:08:39;48.60;;;2.50;;
2838;SDS011;1427;48.510;9.060;2022-10-12T16:11:14;51.10;;;2.23;;
2838;SDS011;1427;48.510;9.060;2022-10-12T16:13:45;50.10;;;3.43;;
2838;SDS011;1427;48.510;9.060;2022-10-12T16:16:22;48.20;;;2.40;;
2838;SDS011;1427;48.510;9.060;2022-10-12T16:18:50;54.53;;;3.20;;
2838;SDS011;1427;48.510;9.060;2022-10-12T16:21:19;68.20;;;7.37;;